sensor_id;sensor_type;location;lat;lon;timestamp;pressure;altitude;pressure_sealevel;temperature;humidity
74437;BME280;62868;52.360;30.424;2023-07-31T00:00:19;1018.8;;;19.4;64.2
74437;BME280;62868;52.360;30.424;2023-07-31T00:05:33;1018.9;;;19.3;64.3
74437;BME280;62868;52.360;30.424;2023-07-31T00:10:57;1018.9;;;19.3;64.3
74437;BME280;62868;52.360;30.424;2023-07-31T00:15:27;1018.9;;;19.3;64.4
74437;BME280;62868;52.360;30.424;2023-07-31T00:20:31;1018.9;;;19.2;64.3
74437;BME280;62868;52.360;30.424;2023-07-31T00:25:57;1018.8;;;19.2;64.4
74437;BME280;62868;52.360;30.424;2023-07-31T00:30:35;1018.7;;;19.1;64.4
74437;BME280;62868;52.360;30.424;2023-07-31T00:35:19;1018.7;;;19.1;64.5
74437;BME280;62868;52.360;30.424;2023-07-31T00:40:13;1018.7;;;19.1;64.6
74437;BME280;62868;52.360;30.424;2023-07-31T00:45:57;1018.8;;;19;64.7
74437;BME280;62868;52.360;30.424;2023-07-31T00:50:47;1018.8;;;19;64.8
74437;BME280;62868;52.360;30.424;2023-07-31T00:55:31;1018.8;;;19;64.7
74437;BME280;62868;52.360;30.424;2023-07-31T01:00:13;1018.8;;;18.9;64.8
74437;BME280;62868;52.360;30.424;2023-07-31T01:05:57;1018.9;;;18.9;64.7
74437;BME280;62868;52.360;30.424;2023-07-31T01:10:15;1018.9;;;18.9;64.7
74437;BME280;62868;52.360;30.424;2023-07-31T01:15:13;1018.9;;;18.9;64.8
74437;BME280;62868;52.360;30.424;2023-07-31T01:20:43;1018.9;;;18.8;64.8
74437;BME280;62868;52.360;30.424;2023-07-31T01:26:03;1018.9;;;18.8;64.9
74437;BME280;62868;52.360;30.424;2023-07-31T01:30:57;1018.9;;;18.8;65
74437;BME280;62868;52.360;30.424;2023-07-31T01:35:47;1018.9;;;18.8;65.1
74437;BME280;62868;52.360;30.424;2023-07-31T01:40:13;1018.9;;;18.8;65
74437;BME280;62868;52.360;30.424;2023-07-31T01:45:13;1019;;;18.8;65.1
74437;BME280;62868;52.360;30.424;2023-07-31T01:50:59;1019;;;18.8;65.2
74437;BME280;62868;52.360;30.424;2023-07-31T01:55:35;1019;;;18.8;65.2
74437;BME280;62868;52.360;30.424;2023-07-31T02:00:47;1018.9;;;18.8;65.3
74437;BME280;62868;52.360;30.424;2023-07-31T02:05:57;1018.9;;;18.8;65.3
74437;BME280;62868;52.360;30.424;2023-07-31T02:10:43;1018.9;;;18.9;65.3
74437;BME280;62868;52.360;30.424;2023-07-31T02:15:13;1018.9;;;19;65.3
74437;BME280;62868;52.360;30.424;2023-07-31T02:20:13;1018.8;;;19.1;65.2
74437;BME280;62868;52.360;30.424;2023-07-31T02:25:57;1018.9;;;19.2;65.1
74437;BME280;62868;52.360;30.424;2023-07-31T02:30:57;1018.8;;;19.3;65
74437;BME280;62868;52.360;30.424;2023-07-31T02:35:57;1018.8;;;19.4;65
74437;BME280;62868;52.360;30.424;2023-07-31T02:40:35;1018.8;;;19.5;64.9
74437;BME280;62868;52.360;30.424;2023-07-31T02:45:43;1018.9;;;19.6;64.8
74437;BME280;62868;52.360;30.424;2023-07-31T02:50:19;1018.9;;;19.8;64.6
74437;BME280;62868;52.360;30.424;2023-07-31T02:55:43;1018.9;;;20;64.4
74437;BME280;62868;52.360;30.424;2023-07-31T03:00:57;1018.9;;;20.7;63.6
74437;BME280;62868;52.360;30.424;2023-07-31T03:05:41;1018.9;;;21.8;61.9
74437;BME280;62868;52.360;30.424;2023-07-31T03:10:31;1018.9;;;21.5;62.7
74437;BME280;62868;52.360;30.424;2023-07-31T03:15:57;1018.9;;;21.2;63.2
74437;BME280;62868;52.360;30.424;2023-07-31T03:20:25;1018.9;;;21.1;63.3
74437;BME280;62868;52.360;30.424;2023-07-31T03:25:13;1018.9;;;21.2;63.2
74437;BME280;62868;52.360;30.424;2023-07-31T03:30:21;1019;;;21.4;62.9
74437;BME280;62868;52.360;30.424;2023-07-31T03:35:41;1019;;;21.5;62.8
74437;BME280;62868;52.360;30.424;2023-07-31T03:40:41;1019;;;21.7;62.6
74437;BME280;62868;52.360;30.424;2023-07-31T03:45:43;1019;;;21.8;62.6
74437;BME280;62868;52.360;30.424;2023-07-31T03:50:33;1019;;;21.8;62.7
74437;BME280;62868;52.360;30.424;2023-07-31T03:55:19;1019;;;21.8;62.9
74437;BME280;62868;52.360;30.424;2023-07-31T04:00:41;1019;;;21.8;63
74437;BME280;62868;52.360;30.424;2023-07-31T04:05:27;1019.1;;;21.8;63.1
74437;BME280;62868;52.360;30.424;2023-07-31T04:10:13;1019.1;;;21.9;63
74437;BME280;62868;52.360;30.424;2023-07-31T04:15:15;1019.2;;;21.9;62.9
74437;BME280;62868;52.360;30.424;2023-07-31T04:20:57;1019.2;;;22.1;62.8
74437;BME280;62868;52.360;30.424;2023-07-31T04:25:21;1019.2;;;22.4;62.4
74437;BME280;62868;52.360;30.424;2023-07-31T04:30:19;1019.2;;;23;61.5
74437;BME280;62868;52.360;30.424;2023-07-31T04:35:57;1019.2;;;23.6;60.8
74437;BME280;62868;52.360;30.424;2023-07-31T04:40:27;1019.2;;;24.1;60.2
74437;BME280;62868;52.360;30.424;2023-07-31T04:45:27;1019.1;;;24.5;59.7
74437;BME280;62868;52.360;30.424;2023-07-31T04:50:33;1019.1;;;24.8;59.3
74437;BME280;62868;52.360;30.424;2023-07-31T04:55:47;1019.1;;;25.3;58.8
74437;BME280;62868;52.360;30.424;2023-07-31T05:00:13;1019.2;;;25.7;58.3
74437;BME280;62868;52.360;30.424;2023-07-31T05:05:17;1019.2;;;25.8;58.2
74437;BME280;62868;52.360;30.424;2023-07-31T05:10:55;1019.2;;;25.7;58.3
74437;BME280;62868;52.360;30.424;2023-07-31T05:15:45;1019.2;;;25.8;57.9
74437;BME280;62868;52.360;30.424;2023-07-31T05:20:29;1019.2;;;25.9;57.6
74437;BME280;62868;52.360;30.424;2023-07-31T05:25:55;1019.2;;;26.1;57.3
74437;BME280;62868;52.360;30.424;2023-07-31T05:30:58;1019.2;;;26.5;56.8
74437;BME280;62868;52.360;30.424;2023-07-31T05:35:17;1019.2;;;26.9;56.2
74437;BME280;62868;52.360;30.424;2023-07-31T05:40:19;1019.2;;;27.3;55.7
74437;BME280;62868;52.360;30.424;2023-07-31T05:45:27;1019.1;;;27.9;55
74437;BME280;62868;52.360;30.424;2023-07-31T05:50:43;1019.1;;;28.3;54.5
74437;BME280;62868;52.360;30.424;2023-07-31T05:55:55;1019.1;;;28.6;54.1
74437;BME280;62868;52.360;30.424;2023-07-31T06:00:31;1019.1;;;29.2;53.2
74437;BME280;62868;52.360;30.424;2023-07-31T06:05:17;1019.2;;;29.5;52.6
74437;BME280;62868;52.360;30.424;2023-07-31T06:10:25;1019.3;;;29.3;52.5
74437;BME280;62868;52.360;30.424;2023-07-31T06:15:55;1019.4;;;29.1;52.3
74437;BME280;62868;52.360;30.424;2023-07-31T06:20:41;1019.5;;;29.2;52.1
74437;BME280;62868;52.360;30.424;2023-07-31T06:25:41;1019.4;;;29.3;51.8
74437;BME280;62868;52.360;30.424;2023-07-31T06:30:53;1019.3;;;29.4;51.6
74437;BME280;62868;52.360;30.424;2023-07-31T06:35:41;1019.2;;;29.1;51.7
74437;BME280;62868;52.360;30.424;2023-07-31T06:40:13;1019.2;;;28.8;51.9
74437;BME280;62868;52.360;30.424;2023-07-31T06:45:27;1019.2;;;28.6;51.8
74437;BME280;62868;52.360;30.424;2023-07-31T06:50:53;1019.2;;;28.8;51.6
74437;BME280;62868;52.360;30.424;2023-07-31T06:55:53;1019.3;;;28.8;51.3
74437;BME280;62868;52.360;30.424;2023-07-31T07:00:53;1019.3;;;29;51
74437;BME280;62868;52.360;30.424;2023-07-31T07:05:53;1019.4;;;29.2;50.6
74437;BME280;62868;52.360;30.424;2023-07-31T07:10:41;1019.4;;;29.8;49.8
74437;BME280;62868;52.360;30.424;2023-07-31T07:15:21;1019.4;;;30.7;48.9
74437;BME280;62868;52.360;30.424;2023-07-31T07:20:45;1019.4;;;31.3;48.2
74437;BME280;62868;52.360;30.424;2023-07-31T07:25:53;1019.5;;;31.2;48.3
74437;BME280;62868;52.360;30.424;2023-07-31T07:30:37;1019.5;;;30.8;48.7
74437;BME280;62868;52.360;30.424;2023-07-31T07:35:13;1019.5;;;30.7;48.4
74437;BME280;62868;52.360;30.424;2023-07-31T07:40:53;1019.5;;;30.6;48.2
74437;BME280;62868;52.360;30.424;2023-07-31T07:45:53;1019.5;;;31.2;47.5
74437;BME280;62868;52.360;30.424;2023-07-31T07:50:21;1019.5;;;32;46.5
74437;BME280;62868;52.360;30.424;2023-07-31T07:55:25;1019.4;;;32.4;46
74437;BME280;62868;52.360;30.424;2023-07-31T08:00:27;1019.4;;;31.8;46.4
74437;BME280;62868;52.360;30.424;2023-07-31T08:05:37;1019.5;;;31;46.7
74437;BME280;62868;52.360;30.424;2023-07-31T08:10:41;1019.6;;;31.1;46.2
74437;BME280;62868;52.360;30.424;2023-07-31T08:15:31;1019.6;;;31.5;45.6
74437;BME280;62868;52.360;30.424;2023-07-31T08:20:43;1019.6;;;31.6;45.6
74437;BME280;62868;52.360;30.424;2023-07-31T08:25:13;1019.6;;;31.5;45.7
74437;BME280;62868;52.360;30.424;2023-07-31T08:30:25;1019.5;;;31.2;45.9
74437;BME280;62868;52.360;30.424;2023-07-31T08:35:27;1019.6;;;31;45.9
74437;BME280;62868;52.360;30.424;2023-07-31T08:40:25;1019.7;;;31.4;45.4
74437;BME280;62868;52.360;30.424;2023-07-31T08:45:53;1019.6;;;31.9;44.9
74437;BME280;62868;52.360;30.424;2023-07-31T08:50:13;1019.5;;;32.5;44.3
74437;BME280;62868;52.360;30.424;2023-07-31T08:55:13;1019.6;;;33;43.8
74437;BME280;62868;52.360;30.424;2023-07-31T09:00:15;1019.6;;;33.2;43.6
74437;BME280;62868;52.360;30.424;2023-07-31T09:05:26;1019.6;;;33.2;43
74437;BME280;62868;52.360;30.424;2023-07-31T09:10:13;1019.5;;;33.2;42.9
74437;BME280;62868;52.360;30.424;2023-07-31T09:15:31;1019.5;;;32.9;42.9
74437;BME280;62868;52.360;30.424;2023-07-31T09:20:43;1019.5;;;32.2;43.1
74437;BME280;62868;52.360;30.424;2023-07-31T09:25:21;1019.5;;;32;43.1
74437;BME280;62868;52.360;30.424;2023-07-31T09:30:32;1019.6;;;31.5;43.3
74437;BME280;62868;52.360;30.424;2023-07-31T09:35:53;1019.6;;;31.4;43.5
74437;BME280;62868;52.360;30.424;2023-07-31T09:40:43;1019.6;;;31.3;43.7
74437;BME280;62868;52.360;30.424;2023-07-31T09:45:27;1019.5;;;32.2;42.9
74437;BME280;62868;52.360;30.424;2023-07-31T09:50:27;1019.5;;;32.4;42.8
74437;BME280;62868;52.360;30.424;2023-07-31T09:55:55;1019.6;;;32.1;43.4
74437;BME280;62868;52.360;30.424;2023-07-31T10:00:14;1019.6;;;32;43.6
74437;BME280;62868;52.360;30.424;2023-07-31T10:05:13;1019.6;;;32.5;42.9
74437;BME280;62868;52.360;30.424;2023-07-31T10:10:55;1019.5;;;33;42.2
74437;BME280;62868;52.360;30.424;2023-07-31T10:15:45;1019.5;;;32.7;42.5
74437;BME280;62868;52.360;30.424;2023-07-31T10:20:55;1019.5;;;32.6;42.4
74437;BME280;62868;52.360;30.424;2023-07-31T10:25:31;1019.5;;;32.9;41.9
74437;BME280;62868;52.360;30.424;2023-07-31T10:30:14;1019.5;;;33.1;41.7
74437;BME280;62868;52.360;30.424;2023-07-31T10:35:14;1019.5;;;33.6;41
74437;BME280;62868;52.360;30.424;2023-07-31T10:40:53;1019.4;;;33.6;40.5
74437;BME280;62868;52.360;30.424;2023-07-31T10:45:42;1019.4;;;33.7;40.5
74437;BME280;62868;52.360;30.424;2023-07-31T10:50:46;1019.3;;;33;40.9
74437;BME280;62868;52.360;30.424;2023-07-31T10:55:53;1019.2;;;33.3;40.2
74437;BME280;62868;52.360;30.424;2023-07-31T11:00:42;1019.3;;;33.4;39.9
74437;BME280;62868;52.360;30.424;2023-07-31T11:05:17;1019.3;;;32.9;40.7
74437;BME280;62868;52.360;30.424;2023-07-31T11:10:25;1019.2;;;32.5;41.2
74437;BME280;62868;52.360;30.424;2023-07-31T11:15:53;1019.2;;;32.5;40.8
74437;BME280;62868;52.360;30.424;2023-07-31T11:20:53;1019.1;;;32;41.1
74437;BME280;62868;52.360;30.424;2023-07-31T11:25:57;1019.1;;;31.8;41.1
74437;BME280;62868;52.360;30.424;2023-07-31T11:30:55;1019.1;;;31.6;41
74437;BME280;62868;52.360;30.424;2023-07-31T11:35:41;1019.1;;;31.4;41.3
74437;BME280;62868;52.360;30.424;2023-07-31T11:40:31;1018.9;;;32;40.5
74437;BME280;62868;52.360;30.424;2023-07-31T11:45:55;1018.9;;;32.4;39.9
74437;BME280;62868;52.360;30.424;2023-07-31T11:50:57;1018.8;;;32.7;39.5
74437;BME280;62868;52.360;30.424;2023-07-31T11:55:39;1018.8;;;32.8;39.3
74437;BME280;62868;52.360;30.424;2023-07-31T12:00:25;1018.9;;;32.2;39.9
74437;BME280;62868;52.360;30.424;2023-07-31T12:05:55;1018.9;;;31.8;40.3
74437;BME280;62868;52.360;30.424;2023-07-31T12:10:30;1018.9;;;31.5;40.8
74437;BME280;62868;52.360;30.424;2023-07-31T12:15:17;1018.9;;;31.6;40.9
74437;BME280;62868;52.360;30.424;2023-07-31T12:20:21;1018.9;;;32.3;39.7
74437;BME280;62868;52.360;30.424;2023-07-31T12:25:28;1018.9;;;32;39.7
74437;BME280;62868;52.360;30.424;2023-07-31T12:30:34;1019;;;32.2;39.9
74437;BME280;62868;52.360;30.424;2023-07-31T12:35:42;1018.8;;;32.8;39.5
74437;BME280;62868;52.360;30.424;2023-07-31T12:40:57;1018.8;;;33.1;39.3
74437;BME280;62868;52.360;30.424;2023-07-31T12:45:29;1018.8;;;33.5;38.8
74437;BME280;62868;52.360;30.424;2023-07-31T12:50:13;1018.8;;;33.5;38.8
74437;BME280;62868;52.360;30.424;2023-07-31T12:55:41;1018.8;;;33.4;39
74437;BME280;62868;52.360;30.424;2023-07-31T13:00:43;1018.8;;;33.2;39.2
74437;BME280;62868;52.360;30.424;2023-07-31T13:05:41;1018.8;;;33.2;39
74437;BME280;62868;52.360;30.424;2023-07-31T13:10:57;1018.8;;;32.7;39.5
74437;BME280;62868;52.360;30.424;2023-07-31T13:15:32;1018.8;;;32.1;39.9
74437;BME280;62868;52.360;30.424;2023-07-31T13:20:17;1018.7;;;31.8;40
74437;BME280;62868;52.360;30.424;2023-07-31T13:25:41;1018.7;;;32.1;39.6
74437;BME280;62868;52.360;30.424;2023-07-31T13:30:25;1018.7;;;32.1;39.5
74437;BME280;62868;52.360;30.424;2023-07-31T13:35:31;1018.6;;;32.3;39.3
74437;BME280;62868;52.360;30.424;2023-07-31T13:40:47;1018.7;;;32.3;39.3
74437;BME280;62868;52.360;30.424;2023-07-31T13:45:57;1018.7;;;32.2;39.5
74437;BME280;62868;52.360;30.424;2023-07-31T13:50:13;1018.7;;;32.2;39.5
74437;BME280;62868;52.360;30.424;2023-07-31T13:55:31;1018.7;;;32;39.7
74437;BME280;62868;52.360;30.424;2023-07-31T14:00:57;1018.7;;;31.9;39.7
74437;BME280;62868;52.360;30.424;2023-07-31T14:05:25;1018.7;;;31.6;39.7
74437;BME280;62868;52.360;30.424;2023-07-31T14:10:31;1018.7;;;31.2;40
74437;BME280;62868;52.360;30.424;2023-07-31T14:15:31;1018.7;;;31.2;39.9
74437;BME280;62868;52.360;30.424;2023-07-31T14:20:47;1018.7;;;31;39.7
74437;BME280;62868;52.360;30.424;2023-07-31T14:25:13;1018.7;;;30.9;39.7
74437;BME280;62868;52.360;30.424;2023-07-31T14:30:17;1018.7;;;30.8;39.7
74437;BME280;62868;52.360;30.424;2023-07-31T14:35:57;1018.8;;;30.7;39.8
74437;BME280;62868;52.360;30.424;2023-07-31T14:40:47;1018.8;;;30.5;39.6
74437;BME280;62868;52.360;30.424;2023-07-31T14:45:57;1018.7;;;30.2;39.6
74437;BME280;62868;52.360;30.424;2023-07-31T14:50:31;1018.8;;;30;39.4
74437;BME280;62868;52.360;30.424;2023-07-31T14:55:13;1018.8;;;29.7;39.5
74437;BME280;62868;52.360;30.424;2023-07-31T15:00:17;1018.7;;;29.5;39.5
74437;BME280;62868;52.360;30.424;2023-07-31T15:05:57;1018.7;;;29.3;39.9
74437;BME280;62868;52.360;30.424;2023-07-31T15:10:41;1018.7;;;29.1;40.3
74437;BME280;62868;52.360;30.424;2023-07-31T15:15:47;1018.7;;;29;40.7
74437;BME280;62868;52.360;30.424;2023-07-31T15:20:57;1018.7;;;28.9;40.8
74437;BME280;62868;52.360;30.424;2023-07-31T15:25:41;1018.7;;;28.8;41
74437;BME280;62868;52.360;30.424;2023-07-31T15:30:27;1018.8;;;28.6;41.2
74437;BME280;62868;52.360;30.424;2023-07-31T15:35:27;1018.7;;;28.5;41.3
74437;BME280;62868;52.360;30.424;2023-07-31T15:40:57;1018.7;;;28.5;41.3
74437;BME280;62868;52.360;30.424;2023-07-31T15:45:55;1018.8;;;28.4;41.6
74437;BME280;62868;52.360;30.424;2023-07-31T15:50:57;1018.8;;;28.3;41.9
74437;BME280;62868;52.360;30.424;2023-07-31T15:55:57;1018.8;;;28.1;42.1
74437;BME280;62868;52.360;30.424;2023-07-31T16:00:33;1018.8;;;28;42.2
74437;BME280;62868;52.360;30.424;2023-07-31T16:05:21;1018.8;;;27.9;42.3
74437;BME280;62868;52.360;30.424;2023-07-31T16:10:41;1018.8;;;27.8;42.6
74437;BME280;62868;52.360;30.424;2023-07-31T16:15:57;1018.9;;;27.7;43
74437;BME280;62868;52.360;30.424;2023-07-31T16:20:41;1018.9;;;27.6;43.3
74437;BME280;62868;52.360;30.424;2023-07-31T16:25:31;1018.9;;;27.4;43.6
74437;BME280;62868;52.360;30.424;2023-07-31T16:30:57;1018.9;;;27.3;43.9
74437;BME280;62868;52.360;30.424;2023-07-31T16:35:13;1018.9;;;27.2;44.2
74437;BME280;62868;52.360;30.424;2023-07-31T16:40:17;1019;;;27;44.4
74437;BME280;62868;52.360;30.424;2023-07-31T16:45:23;1019;;;27;44.6
74437;BME280;62868;52.360;30.424;2023-07-31T16:50:39;1019;;;26.8;44.8
74437;BME280;62868;52.360;30.424;2023-07-31T16:55:41;1019.1;;;26.7;45
74437;BME280;62868;52.360;30.424;2023-07-31T17:00:23;1019.1;;;26.5;45.3
74437;BME280;62868;52.360;30.424;2023-07-31T17:05:13;1019.1;;;26.4;45.5
74437;BME280;62868;52.360;30.424;2023-07-31T17:10:13;1019;;;26.2;45.8
74437;BME280;62868;52.360;30.424;2023-07-31T17:15:17;1019;;;26;46.1
74437;BME280;62868;52.360;30.424;2023-07-31T17:20:23;1019;;;25.8;46.4
74437;BME280;62868;52.360;30.424;2023-07-31T17:25:13;1019;;;25.6;46.9
74437;BME280;62868;52.360;30.424;2023-07-31T17:30:41;1019;;;25.3;47.4
74437;BME280;62868;52.360;30.424;2023-07-31T17:35:57;1019.2;;;25.1;47.9
74437;BME280;62868;52.360;30.424;2023-07-31T17:40:31;1019.2;;;24.8;48.3
74437;BME280;62868;52.360;30.424;2023-07-31T17:45:13;1019.2;;;24.6;48.7
74437;BME280;62868;52.360;30.424;2023-07-31T17:50:41;1019.3;;;24.3;49.3
74437;BME280;62868;52.360;30.424;2023-07-31T17:55:17;1019.3;;;24.1;49.7
74437;BME280;62868;52.360;30.424;2023-07-31T18:00:17;1019.3;;;23.9;50.1
74437;BME280;62868;52.360;30.424;2023-07-31T18:05:49;1019.4;;;23.8;50.3
74437;BME280;62868;52.360;30.424;2023-07-31T18:10:59;1019.4;;;23.5;50.8
74437;BME280;62868;52.360;30.424;2023-07-31T18:15:25;1019.4;;;23.3;51.3
74437;BME280;62868;52.360;30.424;2023-07-31T18:20:13;1019.4;;;23.2;51.6
74437;BME280;62868;52.360;30.424;2023-07-31T18:25:31;1019.5;;;23;52.1
74437;BME280;62868;52.360;30.424;2023-07-31T18:30:43;1019.6;;;22.8;52.5
74437;BME280;62868;52.360;30.424;2023-07-31T18:35:17;1019.6;;;22.6;52.8
74437;BME280;62868;52.360;30.424;2023-07-31T18:40:13;1019.7;;;22.5;53.2
74437;BME280;62868;52.360;30.424;2023-07-31T18:45:49;1019.7;;;22.4;53.4
74437;BME280;62868;52.360;30.424;2023-07-31T18:50:13;1019.7;;;22.3;53.6
74437;BME280;62868;52.360;30.424;2023-07-31T18:55:13;1019.7;;;22.2;53.9
74437;BME280;62868;52.360;30.424;2023-07-31T19:00:59;1019.7;;;22.1;54.3
74437;BME280;62868;52.360;30.424;2023-07-31T19:05:49;1019.7;;;22;54.6
74437;BME280;62868;52.360;30.424;2023-07-31T19:10:13;1019.8;;;21.8;55
74437;BME280;62868;52.360;30.424;2023-07-31T19:15:29;1019.9;;;21.8;55.3
74437;BME280;62868;52.360;30.424;2023-07-31T19:20:57;1019.9;;;21.7;55.5
74437;BME280;62868;52.360;30.424;2023-07-31T19:25:17;1019.9;;;21.5;55.9
74437;BME280;62868;52.360;30.424;2023-07-31T19:30:25;1019.9;;;21.5;55.9
74437;BME280;62868;52.360;30.424;2023-07-31T19:35:43;1019.9;;;21.4;56.2
74437;BME280;62868;52.360;30.424;2023-07-31T19:40:49;1019.9;;;21.3;56.3
74437;BME280;62868;52.360;30.424;2023-07-31T19:45:59;1019.9;;;21.3;56.6
74437;BME280;62868;52.360;30.424;2023-07-31T19:50:17;1019.9;;;21.2;56.8
74437;BME280;62868;52.360;30.424;2023-07-31T19:55:17;1019.9;;;21.1;57.1
74437;BME280;62868;52.360;30.424;2023-07-31T20:00:13;1019.9;;;21.2;57.1
74437;BME280;62868;52.360;30.424;2023-07-31T20:05:57;1020;;;21;57.3
74437;BME280;62868;52.360;30.424;2023-07-31T20:10:59;1020;;;21;57.4
74437;BME280;62868;52.360;30.424;2023-07-31T20:15:59;1020;;;20.9;57.7
74437;BME280;62868;52.360;30.424;2023-07-31T20:20:59;1020.1;;;20.8;57.9
74437;BME280;62868;52.360;30.424;2023-07-31T20:25:43;1020;;;20.8;57.9
74437;BME280;62868;52.360;30.424;2023-07-31T20:30:13;1020;;;20.8;58.2
74437;BME280;62868;52.360;30.424;2023-07-31T20:35:43;1020;;;20.7;58.3
74437;BME280;62868;52.360;30.424;2023-07-31T20:40:57;1019.9;;;20.7;58.5
74437;BME280;62868;52.360;30.424;2023-07-31T20:45:59;1019.9;;;20.7;58.5
74437;BME280;62868;52.360;30.424;2023-07-31T20:50:31;1019.9;;;20.5;58.6
74437;BME280;62868;52.360;30.424;2023-07-31T20:55:59;1019.8;;;20.5;58.7
74437;BME280;62868;52.360;30.424;2023-07-31T21:00:13;1019.8;;;20.4;58.8
74437;BME280;62868;52.360;30.424;2023-07-31T21:05:25;1019.8;;;20.3;59.1
74437;BME280;62868;52.360;30.424;2023-07-31T21:10:25;1019.8;;;20.2;59.2
74437;BME280;62868;52.360;30.424;2023-07-31T21:15:33;1019.9;;;20.2;59.4
74437;BME280;62868;52.360;30.424;2023-07-31T21:20:45;1019.9;;;20.1;59.5
74437;BME280;62868;52.360;30.424;2023-07-31T21:25:43;1019.9;;;20;59.7
74437;BME280;62868;52.360;30.424;2023-07-31T21:30:13;1019.9;;;20;59.7
74437;BME280;62868;52.360;30.424;2023-07-31T21:35:13;1019.9;;;20;59.7
74437;BME280;62868;52.360;30.424;2023-07-31T21:40:13;1019.9;;;20;59.9
74437;BME280;62868;52.360;30.424;2023-07-31T21:45:41;1020;;;19.9;60
74437;BME280;62868;52.360;30.424;2023-07-31T21:50:31;1019.9;;;19.9;60.3
74437;BME280;62868;52.360;30.424;2023-07-31T21:55:41;1019.9;;;19.9;60.4
74437;BME280;62868;52.360;30.424;2023-07-31T22:00:59;1019.9;;;19.9;60.4
74437;BME280;62868;52.360;30.424;2023-07-31T22:05:33;1019.9;;;19.8;60.6
74437;BME280;62868;52.360;30.424;2023-07-31T22:10:13;1019.9;;;19.8;60.7
74437;BME280;62868;52.360;30.424;2023-07-31T22:15:41;1019.9;;;19.8;60.8
74437;BME280;62868;52.360;30.424;2023-07-31T22:20:25;1019.9;;;19.8;60.9
74437;BME280;62868;52.360;30.424;2023-07-31T22:25:13;1019.8;;;19.8;61.1
74437;BME280;62868;52.360;30.424;2023-07-31T22:30:45;1019.8;;;19.8;61.2
74437;BME280;62868;52.360;30.424;2023-07-31T22:35:59;1019.8;;;19.7;61.3
74437;BME280;62868;52.360;30.424;2023-07-31T22:40:13;1019.8;;;19.7;61.4
74437;BME280;62868;52.360;30.424;2023-07-31T22:45:13;1019.8;;;19.6;61.4
74437;BME280;62868;52.360;30.424;2023-07-31T22:50:59;1019.8;;;19.6;61.5
74437;BME280;62868;52.360;30.424;2023-07-31T22:55:25;1019.8;;;19.5;61.4
74437;BME280;62868;52.360;30.424;2023-07-31T23:00:31;1019.8;;;19.4;61.6
74437;BME280;62868;52.360;30.424;2023-07-31T23:05:33;1019.8;;;19.4;61.6
74437;BME280;62868;52.360;30.424;2023-07-31T23:10:49;1019.8;;;19.3;61.8
74437;BME280;62868;52.360;30.424;2023-07-31T23:15:43;1019.8;;;19.3;61.9
74437;BME280;62868;52.360;30.424;2023-07-31T23:20:29;1019.7;;;19.3;61.9
74437;BME280;62868;52.360;30.424;2023-07-31T23:25:55;1019.6;;;19.2;62
74437;BME280;62868;52.360;30.424;2023-07-31T23:30:49;1019.6;;;19.2;62.1
74437;BME280;62868;52.360;30.424;2023-07-31T23:35:31;1019.6;;;19.1;62
74437;BME280;62868;52.360;30.424;2023-07-31T23:40:13;1019.7;;;19.1;62
74437;BME280;62868;52.360;30.424;2023-07-31T23:45:59;1019.7;;;19;62.1
74437;BME280;62868;52.360;30.424;2023-07-31T23:50:14;1019.8;;;19;62.2
74437;BME280;62868;52.360;30.424;2023-07-31T23:55:59;1019.8;;;18.9;62.3
